createdAt,value
2022-09-29T00:02:09.432Z,88.18
2022-09-29T00:04:35.904Z,88.25
2022-09-29T00:07:02.337Z,88.48
2022-09-29T00:09:28.884Z,88.31
2022-09-29T00:11:58.831Z,87.91
2022-09-29T00:14:25.440Z,88.61
2022-09-29T00:16:52.993Z,88.52
2022-09-29T00:19:19.667Z,88.83
2022-09-29T00:21:46.175Z,88.67
2022-09-29T00:24:12.561Z,89.11
2022-09-29T00:26:39.104Z,89.33
2022-09-29T00:29:05.645Z,88.57
2022-09-29T00:31:33.994Z,88.43
2022-09-29T00:34:00.519Z,88.61
2022-09-29T00:36:30.006Z,88.40
2022-09-29T00:38:57.883Z,88.50
2022-09-29T00:41:31.323Z,88.31
2022-09-29T00:44:14.505Z,88.45
2022-09-29T00:46:50.227Z,88.49
2022-09-29T00:49:34.772Z,88.36
2022-09-29T00:52:21.926Z,88.31
2022-09-29T00:55:25.114Z,88.33
2022-09-29T00:58:03.887Z,88.49
2022-09-29T01:00:30.848Z,88.42
2022-09-29T01:03:08.430Z,88.15
2022-09-29T01:05:40.627Z,88.19
2022-09-29T01:08:20.351Z,88.27
2022-09-29T01:10:47.980Z,88.19
2022-09-29T01:13:15.131Z,88.24
2022-09-29T01:15:41.547Z,88.22
2022-09-29T01:18:08.261Z,88.48
2022-09-29T01:20:44.471Z,88.30
2022-09-29T01:23:28.216Z,88.48
2022-09-29T01:26:18.351Z,88.25
2022-09-29T01:28:59.337Z,88.17
2022-09-29T01:31:53.255Z,88.56
2022-09-29T01:34:43.633Z,88.57
2022-09-29T01:37:37.874Z,88.40
2022-09-29T01:40:14.100Z,88.31
2022-09-29T01:43:20.720Z,88.29
2022-09-29T01:46:02.109Z,88.36
2022-09-29T01:48:37.479Z,87.95
2022-09-29T01:51:11.503Z,88.67
2022-09-29T01:53:45.833Z,88.82
2022-09-29T01:56:21.957Z,88.90
2022-09-29T01:59:02.161Z,88.87
2022-09-29T02:01:34.556Z,88.66
2022-09-29T02:04:08.396Z,88.72
2022-09-29T02:06:45.155Z,88.32
2022-09-29T02:09:18.805Z,88.80
2022-09-29T02:11:46.843Z,88.32
2022-09-29T02:14:21.852Z,88.29
2022-09-29T02:16:55.803Z,88.33
2022-09-29T02:19:28.525Z,88.25
2022-09-29T02:21:55.467Z,88.39
2022-09-29T02:24:23.311Z,88.32
2022-09-29T02:26:50.008Z,88.47
2022-09-29T02:29:16.904Z,88.40
2022-09-29T02:31:44.465Z,88.68
2022-09-29T02:34:16.174Z,88.10
2022-09-29T02:36:56.660Z,88.31
2022-09-29T02:39:40.095Z,88.21
2022-09-29T02:42:48.279Z,88.28
2022-09-29T02:45:42.796Z,88.50
2022-09-29T02:48:32.914Z,88.50
2022-09-29T02:51:15.799Z,88.85
2022-09-29T02:53:45.127Z,88.88
2022-09-29T02:56:23.559Z,88.91
2022-09-29T02:58:59.538Z,88.45
2022-09-29T03:01:26.220Z,87.65
2022-09-29T03:03:55.502Z,88.27
2022-09-29T03:06:22.329Z,87.62
2022-09-29T03:08:48.684Z,88.42
2022-09-29T03:11:16.249Z,87.83
2022-09-29T03:13:42.930Z,88.10
2022-09-29T03:16:09.449Z,88.35
2022-09-29T03:18:36.024Z,88.14
2022-09-29T03:21:02.584Z,88.27
2022-09-29T03:23:29.159Z,88.12
2022-09-29T03:25:55.706Z,88.10
2022-09-29T03:28:22.085Z,87.89
2022-09-29T03:30:48.479Z,87.84
2022-09-29T03:33:15.003Z,88.00
2022-09-29T03:35:44.454Z,88.18
2022-09-29T03:38:11.517Z,88.00
2022-09-29T03:40:37.948Z,88.16
2022-09-29T03:43:04.371Z,88.22
2022-09-29T03:45:30.792Z,88.52
2022-09-29T03:48:03.479Z,88.73
2022-09-29T03:50:35.259Z,88.15
2022-09-29T03:53:01.839Z,88.16
2022-09-29T03:55:28.346Z,87.88
2022-09-29T03:57:54.897Z,88.19
2022-09-29T04:00:21.478Z,88.07
2022-09-29T04:02:48.017Z,88.24
2022-09-29T04:05:14.532Z,88.77
2022-09-29T04:07:43.442Z,88.37
2022-09-29T04:10:09.889Z,88.91
2022-09-29T04:12:36.415Z,88.62
2022-09-29T04:15:03.467Z,88.75
2022-09-29T04:17:29.839Z,88.26
2022-09-29T04:19:56.363Z,88.82
2022-09-29T04:22:22.794Z,88.82
2022-09-29T04:24:49.223Z,89.07
2022-09-29T04:27:17.040Z,88.70
2022-09-29T04:29:43.642Z,88.45
2022-09-29T04:32:11.003Z,88.30
2022-09-29T04:34:37.764Z,88.59
2022-09-29T04:37:04.184Z,88.17
2022-09-29T04:39:30.700Z,88.55
2022-09-29T04:41:57.210Z,88.60
2022-09-29T04:44:33.923Z,88.45
2022-09-29T04:47:00.518Z,88.57
2022-09-29T04:49:26.877Z,88.43
2022-09-29T04:51:53.384Z,88.13
2022-09-29T04:54:19.934Z,88.79
2022-09-29T04:56:52.960Z,88.27
2022-09-29T04:59:19.429Z,88.31
2022-09-29T05:01:49.183Z,88.64
2022-09-29T05:04:15.743Z,88.76
2022-09-29T05:06:42.124Z,88.74
2022-09-29T05:09:09.097Z,88.09
2022-09-29T05:11:35.496Z,88.40
2022-09-29T05:14:02.073Z,88.33
2022-09-29T05:16:28.976Z,88.46
2022-09-29T05:18:55.398Z,88.72
2022-09-29T05:21:28.849Z,88.65
2022-09-29T05:23:56.530Z,88.08
2022-09-29T05:26:22.997Z,88.32
2022-09-29T05:28:49.725Z,88.86
2022-09-29T05:31:16.193Z,88.08
2022-09-29T05:33:43.087Z,88.08
2022-09-29T05:36:12.445Z,87.87
2022-09-29T05:38:39.747Z,87.73
2022-09-29T05:41:11.697Z,88.04
2022-09-29T05:43:39.487Z,88.29
2022-09-29T05:46:07.926Z,88.70
2022-09-29T05:48:34.754Z,88.67
2022-09-29T05:51:08.082Z,88.38
2022-09-29T05:53:34.779Z,88.77
2022-09-29T05:56:09.366Z,88.02
2022-09-29T05:58:37.068Z,88.73
2022-09-29T06:01:12.305Z,88.46
2022-09-29T06:03:39.276Z,88.87
2022-09-29T06:06:07.507Z,88.53
2022-09-29T06:08:34.133Z,88.54
2022-09-29T06:11:05.931Z,88.78
2022-09-29T06:13:32.843Z,88.29
2022-09-29T06:16:00.675Z,89.18
2022-09-29T06:18:27.328Z,89.14
2022-09-29T06:20:53.853Z,88.77
2022-09-29T06:23:20.221Z,88.15
2022-09-29T06:25:46.572Z,88.39
2022-09-29T06:28:13.392Z,88.48
2022-09-29T06:30:39.921Z,88.37
2022-09-29T06:33:06.645Z,87.79
2022-09-29T06:35:51.611Z,88.32
2022-09-29T06:38:20.452Z,88.53
2022-09-29T06:40:46.831Z,88.23
2022-09-29T06:43:13.350Z,88.01
2022-09-29T06:45:40.279Z,88.05
2022-09-29T06:48:06.831Z,88.26
2022-09-29T06:50:34.863Z,87.68
2022-09-29T06:53:04.570Z,87.69
2022-09-29T06:55:31.881Z,87.80
2022-09-29T06:58:02.918Z,88.07
2022-09-29T07:00:31.025Z,87.74
2022-09-29T07:03:01.778Z,87.40
2022-09-29T07:05:28.307Z,87.34
2022-09-29T07:08:00.725Z,87.68
2022-09-29T07:10:27.484Z,87.57
2022-09-29T07:12:55.517Z,87.23
2022-09-29T07:15:22.057Z,86.93
2022-09-29T07:17:52.346Z,86.61
2022-09-29T07:20:18.892Z,86.55
2022-09-29T07:22:48.287Z,86.00
2022-09-29T07:25:23.211Z,86.11
2022-09-29T07:28:00.850Z,85.27
2022-09-29T07:30:39.142Z,84.52
2022-09-29T07:33:06.951Z,84.64
2022-09-29T07:35:36.296Z,84.75
2022-09-29T07:38:06.078Z,84.99
2022-09-29T07:40:32.817Z,85.57
2022-09-29T07:42:59.656Z,85.82
2022-09-29T07:45:26.016Z,86.03
2022-09-29T07:47:52.387Z,86.24
2022-09-29T07:50:18.778Z,86.06
2022-09-29T07:52:45.132Z,86.78
2022-09-29T07:55:11.640Z,86.68
2022-09-29T07:57:38.029Z,86.95
2022-09-29T08:00:04.966Z,87.22
2022-09-29T08:02:32.178Z,87.16
2022-09-29T08:05:02.223Z,86.95
2022-09-29T08:07:30.659Z,87.13
2022-09-29T08:10:02.766Z,87.00
2022-09-29T08:12:42.839Z,86.95
2022-09-29T08:15:10.668Z,86.66
2022-09-29T08:17:37.032Z,86.42
2022-09-29T08:20:03.899Z,86.67
2022-09-29T08:22:30.419Z,87.09
2022-09-29T08:24:59.907Z,85.51
2022-09-29T08:27:26.508Z,85.71
2022-09-29T08:29:52.865Z,84.55
2022-09-29T08:32:19.358Z,84.96
2022-09-29T08:34:45.852Z,85.21
2022-09-29T08:37:12.276Z,85.71
2022-09-29T08:39:39.872Z,85.52
2022-09-29T08:42:16.991Z,84.47
2022-09-29T08:44:47.892Z,85.48
2022-09-29T08:47:21.121Z,85.81
2022-09-29T08:49:55.327Z,85.38
2022-09-29T08:52:27.478Z,85.93
2022-09-29T08:55:12.560Z,85.70
2022-09-29T08:57:46.311Z,86.17
2022-09-29T09:00:15.371Z,85.72
2022-09-29T09:03:04.370Z,86.37
2022-09-29T09:05:49.731Z,86.30
2022-09-29T09:08:48.735Z,86.52
2022-09-29T09:11:38.499Z,86.49
2022-09-29T09:14:53.040Z,86.01
2022-09-29T09:17:27.562Z,86.54
2022-09-29T09:20:32.654Z,87.25
2022-09-29T09:23:01.581Z,86.51
2022-09-29T09:25:31.124Z,85.91
2022-09-29T09:28:15.656Z,85.57
2022-09-29T09:30:50.296Z,85.01
2022-09-29T09:33:42.572Z,84.51
2022-09-29T09:36:23.247Z,83.65
2022-09-29T09:39:14.653Z,84.13
2022-09-29T09:41:44.485Z,84.24
2022-09-29T09:44:19.508Z,84.57
2022-09-29T09:46:51.716Z,84.45
2022-09-29T09:49:26.795Z,83.70
2022-09-29T09:52:17.153Z,81.58
2022-09-29T09:55:01.036Z,81.56
2022-09-29T09:58:01.338Z,81.67
2022-09-29T10:00:39.049Z,80.82
2022-09-29T10:03:08.456Z,80.67
2022-09-29T10:05:39.605Z,80.12
2022-09-29T10:08:10.573Z,79.46
2022-09-29T10:10:51.085Z,79.69
2022-09-29T10:13:27.434Z,80.43
2022-09-29T10:15:53.730Z,80.46
2022-09-29T10:18:46.622Z,81.32
2022-09-29T10:21:29.763Z,80.95
2022-09-29T10:23:57.240Z,81.74
2022-09-29T10:26:26.096Z,82.06
2022-09-29T10:28:55.323Z,82.55
2022-09-29T10:31:27.105Z,82.46
2022-09-29T10:34:16.566Z,82.19
2022-09-29T10:36:55.059Z,82.61
2022-09-29T10:39:43.030Z,82.67
2022-09-29T10:42:21.384Z,83.28
2022-09-29T10:45:12.696Z,82.56
2022-09-29T10:47:39.208Z,82.70
2022-09-29T10:50:26.275Z,83.05
2022-09-29T10:52:55.897Z,81.78
2022-09-29T10:55:24.209Z,80.72
2022-09-29T10:57:52.564Z,81.26
2022-09-29T11:00:28.940Z,81.97
2022-09-29T11:03:23.738Z,81.45
2022-09-29T11:06:06.094Z,77.95
2022-09-29T11:08:32.632Z,76.55
2022-09-29T11:11:21.511Z,77.46
2022-09-29T11:13:48.560Z,73.79
2022-09-29T11:16:17.788Z,70.20
2022-09-29T11:18:48.598Z,66.87
2022-09-29T11:21:21.459Z,69.29
2022-09-29T11:24:10.959Z,68.80
2022-09-29T11:26:43.953Z,69.35
2022-09-29T11:29:28.820Z,71.93
2022-09-29T11:32:17.516Z,70.47
2022-09-29T11:35:06.177Z,68.91
2022-09-29T11:37:47.575Z,69.89
2022-09-29T11:40:31.502Z,67.89
2022-09-29T11:43:05.931Z,63.40
2022-09-29T11:45:41.956Z,62.96
2022-09-29T11:48:08.288Z,63.12
2022-09-29T11:50:58.730Z,64.07
2022-09-29T11:53:51.269Z,66.61
2022-09-29T11:56:46.126Z,64.66
2022-09-29T11:59:27.701Z,64.83
2022-09-29T12:02:09.384Z,63.19
2022-09-29T12:05:08.270Z,62.83
2022-09-29T12:07:40.738Z,62.08
2022-09-29T12:10:08.467Z,65.08
2022-09-29T12:12:41.197Z,63.09
2022-09-29T12:17:59.228Z,61.99
2022-09-29T12:20:32.107Z,63.26
2022-09-29T12:23:05.030Z,61.34
2022-09-29T12:25:36.681Z,61.23
2022-09-29T12:28:12.417Z,59.86
2022-09-29T12:30:51.865Z,59.40
2022-09-29T12:33:33.328Z,57.84
2022-09-29T12:36:44.039Z,59.48
2022-09-29T12:39:21.399Z,58.35
2022-09-29T12:41:58.831Z,58.82
2022-09-29T12:44:38.502Z,58.77
2022-09-29T12:47:28.699Z,59.10
2022-09-29T12:50:22.887Z,61.98
2022-09-29T12:53:11.357Z,62.14
2022-09-29T12:55:42.176Z,61.89
2022-09-29T12:58:15.882Z,64.64
2022-09-29T13:00:45.438Z,62.98
2022-09-29T13:03:26.179Z,62.43
2022-09-29T13:06:13.265Z,64.65
2022-09-29T13:08:58.221Z,65.08
2022-09-29T13:12:15.963Z,65.02
2022-09-29T13:15:07.039Z,64.32
2022-09-29T13:17:43.553Z,63.75
2022-09-29T13:20:29.102Z,63.94
2022-09-29T13:23:19.199Z,65.32
2022-09-29T13:25:54.809Z,62.55
2022-09-29T13:28:39.212Z,64.51
2022-09-29T13:31:10.648Z,65.26
2022-09-29T13:33:38.109Z,65.54
2022-09-29T13:36:04.880Z,65.35
2022-09-29T13:38:36.851Z,65.15
2022-09-29T13:41:10.736Z,65.53
2022-09-29T13:43:50.106Z,66.26
2022-09-29T13:46:29.944Z,66.39
2022-09-29T13:49:04.330Z,66.47
2022-09-29T13:51:58.970Z,66.50
2022-09-29T13:54:25.468Z,66.81
2022-09-29T13:57:01.026Z,67.69
2022-09-29T13:59:31.362Z,68.04
2022-09-29T14:01:58.585Z,68.56
2022-09-29T14:04:51.491Z,68.79
2022-09-29T14:07:50.020Z,69.04
2022-09-29T14:10:45.936Z,69.23
2022-09-29T14:13:15.278Z,69.67
2022-09-29T14:16:20.501Z,67.91
2022-09-29T14:18:53.291Z,67.47
2022-09-29T14:21:46.948Z,65.06
2022-09-29T14:24:35.340Z,65.72
2022-09-29T14:27:23.485Z,65.84
2022-09-29T14:30:08.952Z,63.51
2022-09-29T14:32:55.946Z,64.06
2022-09-29T14:35:33.216Z,61.16
2022-09-29T14:38:08.496Z,62.28
2022-09-29T14:40:35.168Z,63.32
2022-09-29T14:43:16.733Z,63.76
2022-09-29T14:46:34.874Z,63.66
2022-09-29T14:49:59.478Z,64.16
2022-09-29T14:52:55.637Z,63.44
2022-09-29T14:55:38.617Z,62.40
2022-09-29T14:58:24.851Z,61.30
2022-09-29T15:00:51.256Z,61.35
2022-09-29T15:03:34.916Z,60.54
2022-09-29T15:06:28.882Z,61.38
2022-09-29T15:09:02.285Z,61.85
2022-09-29T15:11:31.718Z,62.23
2022-09-29T15:13:59.777Z,62.76
2022-09-29T15:16:34.027Z,61.42
2022-09-29T15:19:41.340Z,62.37
2022-09-29T15:22:37.792Z,62.33
2022-09-29T15:25:18.332Z,61.99
2022-09-29T15:27:49.937Z,61.98
2022-09-29T15:30:19.627Z,61.41
2022-09-29T15:32:49.504Z,61.37
2022-09-29T15:35:21.719Z,61.58
2022-09-29T15:37:50.846Z,61.41
2022-09-29T15:40:24.109Z,60.69
2022-09-29T15:42:55.768Z,61.05
2022-09-29T15:45:27.690Z,61.22
2022-09-29T15:48:06.339Z,61.38
2022-09-29T15:50:41.296Z,61.58
2022-09-29T15:53:10.371Z,60.51
2022-09-29T15:55:37.081Z,60.99
2022-09-29T15:58:26.272Z,61.92
2022-09-29T16:01:02.629Z,62.01
2022-09-29T16:03:50.777Z,63.03
2022-09-29T16:06:29.198Z,62.23
2022-09-29T16:09:03.599Z,62.77
2022-09-29T16:11:33.313Z,63.43
2022-09-29T16:14:03.001Z,63.73
2022-09-29T16:16:36.116Z,63.55
2022-09-29T16:19:08.812Z,63.94
2022-09-29T16:21:37.603Z,64.48
2022-09-29T16:24:13.244Z,65.04
2022-09-29T16:26:44.180Z,65.45
2022-09-29T16:29:10.511Z,65.97
2022-09-29T16:31:42.893Z,66.66
2022-09-29T16:34:21.641Z,66.96
2022-09-29T16:36:52.537Z,67.26
2022-09-29T16:39:21.771Z,67.78
2022-09-29T16:41:50.018Z,68.73
2022-09-29T16:44:30.267Z,68.74
2022-09-29T16:47:10.872Z,69.06
2022-09-29T16:49:50.647Z,70.01
2022-09-29T16:52:20.429Z,70.51
2022-09-29T16:54:48.036Z,71.00
2022-09-29T16:57:26.611Z,71.46
2022-09-29T16:59:56.228Z,71.89
2022-09-29T17:02:23.899Z,72.38
2022-09-29T17:04:54.943Z,72.83
2022-09-29T17:07:24.174Z,73.14
2022-09-29T17:09:55.260Z,73.15
2022-09-29T17:12:22.741Z,74.07
2022-09-29T17:14:50.224Z,74.58
2022-09-29T17:17:27.975Z,75.09
2022-09-29T17:19:56.496Z,75.44
2022-09-29T17:22:32.313Z,75.88
2022-09-29T17:24:59.186Z,76.03
2022-09-29T17:27:45.460Z,76.35
2022-09-29T17:30:17.558Z,76.94
2022-09-29T17:32:47.657Z,77.24
2022-09-29T17:35:15.580Z,77.54
2022-09-29T17:37:44.140Z,77.76
2022-09-29T17:40:30.879Z,77.80
2022-09-29T17:42:59.860Z,78.19
2022-09-29T17:45:28.826Z,78.80
2022-09-29T17:47:56.373Z,79.09
2022-09-29T17:50:32.923Z,79.42
2022-09-29T17:53:00.278Z,79.39
2022-09-29T17:55:27.551Z,79.81
2022-09-29T17:57:54.233Z,80.16
2022-09-29T18:00:38.219Z,80.55
2022-09-29T18:03:10.080Z,80.51
2022-09-29T18:05:38.528Z,80.24
2022-09-29T18:08:06.811Z,80.81
2022-09-29T18:11:05.504Z,81.03
2022-09-29T18:13:32.115Z,80.98
2022-09-29T18:16:00.602Z,81.43
2022-09-29T18:18:27.331Z,81.98
2022-09-29T18:20:54.019Z,81.33
2022-09-29T18:23:23.214Z,81.51
2022-09-29T18:25:51.508Z,81.47
2022-09-29T18:28:18.960Z,81.47
2022-09-29T18:30:48.800Z,82.15
2022-09-29T18:33:18.184Z,82.13
2022-09-29T18:35:50.930Z,82.62
2022-09-29T18:38:17.421Z,82.17
2022-09-29T18:40:44.493Z,82.24
2022-09-29T18:43:13.195Z,82.44
2022-09-29T18:45:43.411Z,82.69
2022-09-29T18:48:15.294Z,82.31
2022-09-29T18:50:44.515Z,82.64
2022-09-29T18:53:12.305Z,82.66
2022-09-29T18:55:38.886Z,82.56
2022-09-29T18:58:05.433Z,83.17
2022-09-29T19:00:39.100Z,83.27
2022-09-29T19:03:05.473Z,82.59
2022-09-29T19:05:34.026Z,83.22
2022-09-29T19:08:03.768Z,83.04
2022-09-29T19:10:33.314Z,83.33
2022-09-29T19:13:02.858Z,83.35
2022-09-29T19:15:33.066Z,83.60
2022-09-29T19:18:05.662Z,83.32
2022-09-29T19:20:32.229Z,83.41
2022-09-29T19:23:02.793Z,83.60
2022-09-29T19:25:37.792Z,83.51
2022-09-29T19:28:05.579Z,83.62
2022-09-29T19:30:38.952Z,83.85
2022-09-29T19:36:04.474Z,83.70
2022-09-29T19:38:31.472Z,84.12
2022-09-29T19:40:58.012Z,83.63
2022-09-29T19:43:25.961Z,83.83
2022-09-29T19:45:52.865Z,84.36
2022-09-29T19:48:22.227Z,83.97
2022-09-29T19:51:14.690Z,84.24
2022-09-29T19:53:44.494Z,83.64
2022-09-29T19:56:14.103Z,83.91
2022-09-29T19:58:41.105Z,84.10
2022-09-29T20:01:10.468Z,84.12
2022-09-29T20:03:36.944Z,84.15
2022-09-29T20:06:06.637Z,84.35
2022-09-29T20:08:33.675Z,84.43
2022-09-29T20:11:08.240Z,84.83
2022-09-29T20:13:34.711Z,85.02
2022-09-29T20:16:01.351Z,85.18
2022-09-29T20:18:28.089Z,84.27
2022-09-29T20:20:54.616Z,84.50
2022-09-29T20:23:24.240Z,84.79
2022-09-29T20:25:59.135Z,84.37
2022-09-29T20:28:26.064Z,84.84
2022-09-29T20:30:58.195Z,85.13
2022-09-29T20:33:28.548Z,85.01
2022-09-29T20:35:55.081Z,84.65
2022-09-29T20:38:21.705Z,84.70
2022-09-29T20:40:48.824Z,84.92
2022-09-29T20:43:15.474Z,85.34
2022-09-29T20:45:42.128Z,84.79
2022-09-29T20:48:10.327Z,85.01
2022-09-29T20:50:37.281Z,85.03
2022-09-29T20:53:05.019Z,84.73
2022-09-29T20:55:31.877Z,85.33
2022-09-29T20:58:00.504Z,85.13
2022-09-29T21:00:26.972Z,85.38
2022-09-29T21:02:53.421Z,85.76
2022-09-29T21:05:19.823Z,85.29
2022-09-29T21:07:46.343Z,85.00
2022-09-29T21:10:13.289Z,85.24
2022-09-29T21:12:39.882Z,85.06
2022-09-29T21:15:06.679Z,84.94
2022-09-29T21:17:33.045Z,85.03
2022-09-29T21:19:59.591Z,85.04
2022-09-29T21:22:27.979Z,85.20
2022-09-29T21:24:55.019Z,85.04
2022-09-29T21:27:21.959Z,85.43
2022-09-29T21:29:48.377Z,85.35
2022-09-29T21:32:15.135Z,85.64
2022-09-29T21:34:41.684Z,85.46
2022-09-29T21:37:08.116Z,85.58
2022-09-29T21:39:34.623Z,85.60
2022-09-29T21:42:00.948Z,85.78
2022-09-29T21:44:27.294Z,85.69
2022-09-29T21:46:53.923Z,85.97
2022-09-29T21:49:20.748Z,85.93
2022-09-29T21:51:49.337Z,85.78
2022-09-29T21:54:22.173Z,85.63
2022-09-29T21:56:49.656Z,85.69
2022-09-29T21:59:18.603Z,86.26
2022-09-29T22:01:46.636Z,85.87
2022-09-29T22:04:13.847Z,85.91
2022-09-29T22:06:43.999Z,85.63
2022-09-29T22:09:14.700Z,85.79
2022-09-29T22:11:42.482Z,86.06
2022-09-29T22:14:10.977Z,85.60
2022-09-29T22:16:38.862Z,85.61
2022-09-29T22:19:22.425Z,85.85
2022-09-29T22:21:50.276Z,86.04
2022-09-29T22:24:16.717Z,85.63
2022-09-29T22:26:43.098Z,85.82
2022-09-29T22:29:09.457Z,85.70
2022-09-29T22:31:36.044Z,85.90
2022-09-29T22:34:05.313Z,86.15
2022-09-29T22:36:33.836Z,86.14
2022-09-29T22:39:01.922Z,86.37
2022-09-29T22:41:29.123Z,86.12
2022-09-29T22:43:57.277Z,85.79
2022-09-29T22:46:26.313Z,86.10
2022-09-29T22:48:53.150Z,86.54
2022-09-29T22:51:22.792Z,86.21
2022-09-29T22:53:49.684Z,86.68
2022-09-29T22:56:18.957Z,86.76
2022-09-29T22:58:46.150Z,86.95
2022-09-29T23:01:15.657Z,86.90
2022-09-29T23:03:44.580Z,86.85
2022-09-29T23:06:11.820Z,86.77
2022-09-29T23:08:39.069Z,86.64
2022-09-29T23:11:07.734Z,86.55
2022-09-29T23:13:39.969Z,86.70
2022-09-29T23:16:12.297Z,86.44
2022-09-29T23:18:44.088Z,86.27
2022-09-29T23:21:13.357Z,86.14
2022-09-29T23:23:39.760Z,86.20
2022-09-29T23:26:06.352Z,86.34
2022-09-29T23:28:32.762Z,86.17
2022-09-29T23:31:06.938Z,86.34
2022-09-29T23:33:34.297Z,86.56
2022-09-29T23:36:15.361Z,86.58
2022-09-29T23:39:02.430Z,86.66
2022-09-29T23:41:30.403Z,86.37
2022-09-29T23:43:59.749Z,86.59
2022-09-29T23:46:32.017Z,86.44
2022-09-29T23:49:04.304Z,86.72
2022-09-29T23:51:32.258Z,86.15
2022-09-29T23:53:59.799Z,86.53
2022-09-29T23:56:27.126Z,86.56
2022-09-29T23:58:53.539Z,86.63
